Sault Sainte Marie, MI

6:43 PM EDT on April 27, 2015 (GMT -0400)
Sault Ste Marie Municipal / Sanderson Field | | Change Station
CLOSE
Current Station
Airport
Location: Sault Ste Marie,
Elevation: 715 ft
Nearby Weather Stations

Elev 715 ft 46.48 °N, 84.36 °W | Updated 48 minutes ago

Overcast
Overcast
48 °F
Feels Like 48 °F
N
9
Wind Variable Wind from NNW

Today
High -- | Low -- °F
--% Chance of Precip.
Yesterday
High -- | Low -- °F
Precip. -- in
6:29 AM 8:41 PM
Waxing Gibbous, 68% visible
Pressure 30.09 in
Visibility 10.0 miles
Clouds Overcast 4400 ft
Dew Point 33 °F
Humidity 56%
Rainfall 0.00 in
Snow Depth Not available.
UV 1 out of 12
Pollen 10.00 out of 12
Air Quality Not available.
Flu Activity Regional
METAR KANJ 272155Z AUTO 33008KT 10SM OVC044 09/01 A3008 RMK AO2 SLP190 T00890006

More Conditions Fewer Conditions

Pressure 30.09 in
Visibility 10.0 miles
Clouds Overcast 4400 ft
Dew Point 33 °F
Humidity 56%
Rainfall 0.00 in
Snow Depth Not available.
UV 1 out of 12
Pollen 10.00 out of 12
Air Quality Not available.
Flu Activity Regional
METAR KANJ 272155Z AUTO 33008KT 10SM OVC044 09/01 A3008 RMK AO2 SLP190 T00890006

More Conditions Fewer Conditions

Nowcast | as of 6:00 PM EDT on April 27, 2015

At 7 PM...cloudy. Temperature 43. Northwest winds 9 mph. At 9 PM...cloudy. Temperature 41. Northwest winds 7 mph. At 11 PM...cloudy. Temperature 39. Northwest winds 5 mph. At 1 am...cloudy. Temperature 39. Northwest winds 5 mph.

×

10-Day Weather Forecast

Almanac

Astronomy

Apr. 27, 2015 Rise Set
Actual Time
Civil Twilight
Nautical Twilight
Astronomical Twilight
Moon
Length of Visible Light
Length of Day
Tomorrow will be .
, % of the Moon is Illuminated

Today's Extremes

State Highs State Lows

Community

WunderPhotos

Upload Photos

1,817,442 photos uploaded!

WunderBlogs® & News

Nearby

Air Quality

  Air Quality AQ Index Pollutant
Not available.

Snow Depth

Station Depth Elevation

Earthquake Activity

City Distance Mag. Time & Date
Minimum magnitude displayed is 2.5.

Coastal Water Temperatures

Place Temperature

Stations

Nearby Weather Stations

Station Location Temp. Windchill Dew Point Humidity Wind Precip. Elev Updated Type